createdAt,value
2018-10-11T00:00:59.311Z,15.49
2018-10-11T00:01:59.510Z,15.47
2018-10-11T00:02:59.514Z,15.40
2018-10-11T00:03:59.333Z,15.31
2018-10-11T00:04:59.314Z,15.31
2018-10-11T00:05:59.548Z,15.27
2018-10-11T00:06:59.332Z,15.31
2018-10-11T00:07:59.316Z,15.22
2018-10-11T00:08:59.319Z,15.27
2018-10-11T00:09:59.319Z,15.25
2018-10-11T00:10:59.319Z,15.27
2018-10-11T00:11:59.318Z,15.31
2018-10-11T00:12:59.322Z,15.25
2018-10-11T00:13:59.320Z,15.21
2018-10-11T00:14:59.320Z,15.29
2018-10-11T00:15:59.356Z,15.28
2018-10-11T00:16:59.333Z,15.21
2018-10-11T00:17:59.364Z,15.27
2018-10-11T00:18:59.333Z,15.22
2018-10-11T00:19:59.360Z,15.28
2018-10-11T00:20:59.323Z,15.33
2018-10-11T00:21:59.352Z,15.24
2018-10-11T00:22:59.326Z,15.27
2018-10-11T00:23:59.352Z,15.25
2018-10-11T00:24:59.347Z,15.21
2018-10-11T00:25:59.344Z,15.28
2018-10-11T00:26:59.338Z,15.29
2018-10-11T00:27:59.332Z,15.24
2018-10-11T00:28:59.330Z,15.28
2018-10-11T00:29:59.346Z,15.28
2018-10-11T00:30:59.535Z,15.27
2018-10-11T00:31:59.332Z,15.27
2018-10-11T00:32:59.335Z,15.15
2018-10-11T00:33:59.349Z,15.17
2018-10-11T00:34:59.335Z,15.17
2018-10-11T00:35:59.337Z,15.18
2018-10-11T00:36:59.346Z,15.09
2018-10-11T00:37:59.340Z,15.03
2018-10-11T00:38:59.347Z,15.02
2018-10-11T00:39:59.349Z,15.04
2018-10-11T00:40:59.352Z,15.02
2018-10-11T00:41:59.353Z,14.99
2018-10-11T00:42:59.347Z,14.97
2018-10-11T00:43:59.358Z,14.96
2018-10-11T00:44:59.342Z,14.88
2018-10-11T00:45:59.343Z,14.79
2018-10-11T00:46:59.358Z,14.79
2018-10-11T00:47:59.360Z,14.77
2018-10-11T00:48:59.545Z,14.70
2018-10-11T00:49:59.345Z,14.70
2018-10-11T00:50:59.346Z,14.63
2018-10-11T00:51:59.550Z,14.63
2018-10-11T00:52:59.346Z,14.50
2018-10-11T00:53:59.346Z,14.51
2018-10-11T00:54:59.359Z,14.51
2018-10-11T00:55:59.549Z,14.51
2018-10-11T00:56:59.353Z,14.37
2018-10-11T00:57:59.357Z,14.41
2018-10-11T00:58:59.351Z,14.44
2018-10-11T00:59:59.363Z,14.36
2018-10-11T01:00:59.351Z,14.37
2018-10-11T01:01:59.349Z,14.25
2018-10-11T01:02:59.562Z,14.17
2018-10-11T01:03:59.354Z,14.12
2018-10-11T01:04:59.367Z,14.18
2018-10-11T01:05:59.578Z,14.10
2018-10-11T01:06:59.351Z,14.05
2018-10-11T01:07:59.366Z,13.90
2018-10-11T01:08:59.369Z,13.92
2018-10-11T01:09:59.388Z,13.86
2018-10-11T01:10:59.375Z,13.78
2018-10-11T01:11:59.360Z,13.89
2018-10-11T01:12:59.377Z,13.93
2018-10-11T01:13:59.354Z,13.79
2018-10-11T01:14:59.356Z,13.96
2018-10-11T01:15:59.355Z,13.81
2018-10-11T01:16:59.353Z,13.90
2018-10-11T01:17:59.368Z,13.95
2018-10-11T01:18:59.368Z,13.92
2018-10-11T01:19:59.369Z,13.92
2018-10-11T01:20:59.369Z,13.96
2018-10-11T01:21:59.370Z,14.04
2018-10-11T01:22:59.357Z,14.03
2018-10-11T01:23:59.567Z,14.07
2018-10-11T01:24:59.567Z,14.04
2018-10-11T01:25:59.358Z,14.00
2018-10-11T01:26:59.359Z,13.99
2018-10-11T01:27:59.383Z,14.00
2018-10-11T01:28:59.369Z,13.90
2018-10-11T01:29:59.374Z,13.92
2018-10-11T01:30:59.572Z,13.89
2018-10-11T01:31:59.369Z,13.75
2018-10-11T01:32:59.360Z,13.67
2018-10-11T01:33:59.360Z,13.63
2018-10-11T01:34:59.388Z,13.56
2018-10-11T01:35:59.372Z,13.53
2018-10-11T01:36:59.358Z,13.53
2018-10-11T01:37:59.375Z,13.41
2018-10-11T01:38:59.362Z,13.35
2018-10-11T01:39:59.374Z,13.35
2018-10-11T01:40:59.371Z,13.33
2018-10-11T01:41:59.364Z,13.27
2018-10-11T01:42:59.362Z,13.19
2018-10-11T01:43:59.362Z,13.27
2018-10-11T01:44:59.390Z,13.22
2018-10-11T01:45:59.565Z,13.09
2018-10-11T01:46:59.394Z,13.19
2018-10-11T01:47:59.382Z,13.08
2018-10-11T01:48:59.573Z,13.08
2018-10-11T01:49:59.359Z,13.15
2018-10-11T01:50:59.580Z,13.15
2018-10-11T01:51:59.364Z,13.01
2018-10-11T01:52:59.578Z,13.04
2018-10-11T01:53:59.377Z,12.98
2018-10-11T01:54:59.376Z,12.82
2018-10-11T01:55:59.361Z,12.79
2018-10-11T01:56:59.361Z,12.87
2018-10-11T01:57:59.576Z,12.85
2018-10-11T01:58:59.361Z,12.83
2018-10-11T01:59:59.392Z,12.85
2018-10-11T02:00:59.373Z,12.75
2018-10-11T02:01:59.567Z,12.82
2018-10-11T02:02:59.361Z,12.78
2018-10-11T02:03:59.359Z,12.90
2018-10-11T02:04:59.358Z,12.79
2018-10-11T02:05:59.364Z,12.75
2018-10-11T02:06:59.374Z,12.75
2018-10-11T02:07:59.369Z,12.64
2018-10-11T02:08:59.360Z,12.65
2018-10-11T02:09:59.360Z,12.60
2018-10-11T02:10:59.358Z,12.50
2018-10-11T02:11:59.371Z,12.57
2018-10-11T02:12:59.369Z,12.58
2018-10-11T02:13:59.359Z,12.61
2018-10-11T02:14:59.381Z,12.72
2018-10-11T02:15:59.369Z,12.70
2018-10-11T02:16:59.377Z,12.75
2018-10-11T02:17:59.357Z,12.85
2018-10-11T02:18:59.360Z,12.78
2018-10-11T02:19:59.561Z,12.80
2018-10-11T02:20:59.366Z,12.90
2018-10-11T02:21:59.356Z,12.95
2018-10-11T02:22:59.559Z,12.97
2018-10-11T02:23:59.353Z,12.95
2018-10-11T02:24:59.364Z,13.00
2018-10-11T02:25:59.369Z,13.13
2018-10-11T02:26:59.352Z,13.19
2018-10-11T02:27:59.371Z,13.12
2018-10-11T02:28:59.366Z,13.12
2018-10-11T02:29:59.356Z,13.16
2018-10-11T02:30:59.557Z,13.18
2018-10-11T02:31:59.510Z,13.16
2018-10-11T02:32:59.364Z,13.18
2018-10-11T02:33:59.356Z,13.30
2018-10-11T02:34:59.378Z,13.23
2018-10-11T02:35:59.405Z,13.20
2018-10-11T02:36:59.366Z,13.37
2018-10-11T02:37:59.360Z,13.37
2018-10-11T02:38:59.366Z,13.30
2018-10-11T02:39:59.555Z,13.23
2018-10-11T02:40:59.578Z,13.23
2018-10-11T02:41:59.374Z,13.15
2018-10-11T02:42:59.380Z,13.08
2018-10-11T02:43:59.362Z,12.95
2018-10-11T02:44:59.360Z,13.00
2018-10-11T02:45:59.351Z,12.98
2018-10-11T02:46:59.352Z,13.01
2018-10-11T02:47:59.349Z,12.87
2018-10-11T02:48:59.353Z,12.98
2018-10-11T02:49:59.360Z,12.93
2018-10-11T02:50:59.347Z,12.91
2018-10-11T02:51:59.552Z,12.91
2018-10-11T02:52:59.548Z,12.91
2018-10-11T02:53:59.553Z,12.80
2018-10-11T02:54:59.358Z,12.86
2018-10-11T02:55:59.552Z,12.65
2018-10-11T02:56:59.348Z,12.62
2018-10-11T02:57:59.347Z,12.50
2018-10-11T02:58:59.345Z,12.55
2018-10-11T02:59:59.356Z,12.54
2018-10-11T03:00:59.550Z,12.55
2018-10-11T03:01:59.357Z,12.58
2018-10-11T03:02:59.347Z,12.40
2018-10-11T03:03:59.358Z,12.43
2018-10-11T03:04:59.345Z,12.39
2018-10-11T03:05:59.342Z,12.27
2018-10-11T03:06:59.350Z,12.22
2018-10-11T03:07:59.359Z,12.12
2018-10-11T03:08:59.353Z,12.06
2018-10-11T03:09:59.340Z,12.00
2018-10-11T03:10:59.352Z,12.02
2018-10-11T03:11:59.344Z,11.88
2018-10-11T03:12:59.339Z,11.87
2018-10-11T03:13:59.352Z,12.00
2018-10-11T03:14:59.350Z,11.99
2018-10-11T03:15:59.338Z,11.94
2018-10-11T03:16:59.353Z,11.91
2018-10-11T03:17:59.351Z,12.09
2018-10-11T03:18:59.549Z,12.12
2018-10-11T03:19:59.348Z,12.10
2018-10-11T03:20:59.334Z,12.06
2018-10-11T03:21:59.348Z,12.09
2018-10-11T03:22:59.334Z,12.13
2018-10-11T03:23:59.537Z,12.13
2018-10-11T03:24:59.535Z,12.18
2018-10-11T03:25:59.347Z,12.15
2018-10-11T03:26:59.342Z,12.09
2018-10-11T03:27:59.334Z,12.04
2018-10-11T03:28:59.340Z,12.04
2018-10-11T03:29:59.331Z,11.91
2018-10-11T03:30:59.335Z,11.91
2018-10-11T03:31:59.329Z,11.77
2018-10-11T03:32:59.337Z,11.78
2018-10-11T03:33:59.329Z,11.83
2018-10-11T03:34:59.327Z,11.78
2018-10-11T03:35:59.341Z,11.68
2018-10-11T03:36:59.326Z,11.69
2018-10-11T03:37:59.329Z,11.63
2018-10-11T03:38:59.337Z,11.70
2018-10-11T03:39:59.324Z,11.70
2018-10-11T03:40:59.329Z,11.70
2018-10-11T03:41:59.323Z,11.78
2018-10-11T03:42:59.324Z,11.78
2018-10-11T03:43:59.332Z,11.77
2018-10-11T03:44:59.320Z,11.75
2018-10-11T03:45:59.328Z,11.83
2018-10-11T03:46:59.334Z,11.84
2018-10-11T03:47:59.317Z,11.83
2018-10-11T03:48:59.327Z,11.86
2018-10-11T03:49:59.518Z,11.88
2018-10-11T03:50:59.328Z,11.83
2018-10-11T03:51:59.338Z,11.78
2018-10-11T03:52:59.331Z,11.80
2018-10-11T03:53:59.314Z,11.68
2018-10-11T03:54:59.327Z,11.65
2018-10-11T03:55:59.311Z,11.59
2018-10-11T03:56:59.317Z,11.52
2018-10-11T03:57:59.527Z,11.52
2018-10-11T03:58:59.320Z,11.55
2018-10-11T03:59:59.307Z,11.50
2018-10-11T04:00:59.321Z,11.60
2018-10-11T04:01:59.512Z,11.60
2018-10-11T04:02:59.310Z,11.60
2018-10-11T04:03:59.332Z,11.48
2018-10-11T04:04:59.304Z,11.50
2018-10-11T04:05:59.304Z,11.43
2018-10-11T04:06:59.303Z,11.44
2018-10-11T04:07:59.305Z,11.40
2018-10-11T04:08:59.327Z,11.36
2018-10-11T04:09:59.326Z,11.33
2018-10-11T04:10:59.298Z,11.32
2018-10-11T04:11:59.298Z,11.23
2018-10-11T04:12:59.316Z,11.22
2018-10-11T04:13:59.295Z,11.15
2018-10-11T04:14:59.311Z,11.14
2018-10-11T04:15:59.315Z,11.15
2018-10-11T04:16:59.360Z,11.17
2018-10-11T04:17:59.309Z,11.15
2018-10-11T04:18:59.302Z,11.19
2018-10-11T04:19:59.290Z,11.25
2018-10-11T04:20:59.317Z,11.25
2018-10-11T04:21:59.317Z,11.27
2018-10-11T04:22:59.505Z,11.30
2018-10-11T04:23:59.287Z,11.30
2018-10-11T04:24:59.290Z,11.45
2018-10-11T04:25:59.309Z,11.48
2018-10-11T04:26:59.284Z,11.43
2018-10-11T04:27:59.283Z,11.37
2018-10-11T04:28:59.290Z,11.30
2018-10-11T04:29:59.355Z,11.35
2018-10-11T04:30:59.481Z,11.19
2018-10-11T04:31:59.282Z,11.32
2018-10-11T04:32:59.283Z,11.27
2018-10-11T04:33:59.280Z,11.18
2018-10-11T04:34:59.275Z,11.11
2018-10-11T04:35:59.320Z,11.12
2018-10-11T04:36:59.274Z,11.11
2018-10-11T04:37:59.282Z,11.05
2018-10-11T04:38:59.273Z,11.10
2018-10-11T04:39:59.276Z,11.14
2018-10-11T04:40:59.275Z,11.11
2018-10-11T04:41:59.274Z,11.12
2018-10-11T04:42:59.366Z,11.17
2018-10-11T04:43:59.308Z,11.12
2018-10-11T04:44:59.303Z,11.15
2018-10-11T04:45:59.279Z,11.05
2018-10-11T04:46:59.313Z,11.07
2018-10-11T04:47:59.265Z,11.05
2018-10-11T04:48:59.271Z,10.97
2018-10-11T04:49:59.308Z,11.05
2018-10-11T04:50:59.271Z,10.99
2018-10-11T04:51:59.259Z,10.99
2018-10-11T04:52:59.309Z,11.00
2018-10-11T04:53:59.265Z,10.94
2018-10-11T04:54:59.255Z,11.05
2018-10-11T04:55:59.253Z,10.96
2018-10-11T04:56:59.250Z,11.11
2018-10-11T04:57:59.252Z,11.05
2018-10-11T04:58:59.266Z,11.10
2018-10-11T04:59:59.259Z,11.08
2018-10-11T05:00:59.249Z,11.07
2018-10-11T05:01:59.248Z,11.07
2018-10-11T05:02:59.247Z,10.96
2018-10-11T05:03:59.286Z,10.82
2018-10-11T05:04:59.261Z,10.82
2018-10-11T05:05:59.288Z,10.76
2018-10-11T05:06:59.277Z,10.74
2018-10-11T05:07:59.256Z,10.74
2018-10-11T05:08:59.261Z,10.75
2018-10-11T05:09:59.442Z,10.78
2018-10-11T05:10:59.301Z,10.76
2018-10-11T05:11:59.307Z,10.76
2018-10-11T05:12:59.245Z,10.71
2018-10-11T05:13:59.232Z,10.72
2018-10-11T05:14:59.233Z,10.63
2018-10-11T05:15:59.230Z,10.68
2018-10-11T05:16:59.229Z,10.49
2018-10-11T05:17:59.433Z,10.49
2018-10-11T05:18:59.241Z,10.42
2018-10-11T05:19:59.229Z,10.49
2018-10-11T05:20:59.228Z,10.40
2018-10-11T05:21:59.428Z,10.40
2018-10-11T05:22:59.222Z,10.38
2018-10-11T05:23:59.456Z,10.41
2018-10-11T05:24:59.231Z,10.46
2018-10-11T05:25:59.229Z,10.44
2018-10-11T05:26:59.445Z,10.51
2018-10-11T05:27:59.220Z,10.51
2018-10-11T05:28:59.216Z,10.53
2018-10-11T05:29:59.226Z,10.49
2018-10-11T05:30:59.212Z,10.53
2018-10-11T05:31:59.215Z,10.59
2018-10-11T05:32:59.222Z,10.46
2018-10-11T05:33:59.207Z,10.46
2018-10-11T05:34:59.209Z,10.41
2018-10-11T05:35:59.211Z,10.34
2018-10-11T05:36:59.208Z,10.23
2018-10-11T05:37:59.254Z,10.23
2018-10-11T05:38:59.203Z,10.22
2018-10-11T05:39:59.213Z,10.17
2018-10-11T05:40:59.199Z,10.10
2018-10-11T05:41:59.202Z,10.15
2018-10-11T05:42:59.199Z,10.07
2018-10-11T05:43:59.209Z,10.12
2018-10-11T05:44:59.203Z,10.23
2018-10-11T05:45:59.194Z,10.20
2018-10-11T05:46:59.194Z,10.28
2018-10-11T05:47:59.194Z,10.28
2018-10-11T05:48:59.406Z,10.30
2018-10-11T05:49:59.203Z,10.46
2018-10-11T05:50:59.219Z,10.42
2018-10-11T05:51:59.419Z,10.48
2018-10-11T05:52:59.399Z,10.42
2018-10-11T05:53:59.397Z,10.44
2018-10-11T05:54:59.193Z,10.51
2018-10-11T05:55:59.179Z,10.38
2018-10-11T05:56:59.178Z,10.48
2018-10-11T05:57:59.175Z,10.44
2018-10-11T05:58:59.176Z,10.41
2018-10-11T05:59:59.178Z,10.49
2018-10-11T06:00:59.174Z,10.41
2018-10-11T06:01:59.172Z,10.33
2018-10-11T06:02:59.371Z,10.30
2018-10-11T06:03:59.198Z,10.31
2018-10-11T06:04:59.181Z,10.31
2018-10-11T06:05:59.168Z,10.38
2018-10-11T06:06:59.189Z,10.34
2018-10-11T06:07:59.187Z,10.44
2018-10-11T06:08:59.196Z,10.49
2018-10-11T06:09:59.175Z,10.46
2018-10-11T06:10:59.171Z,10.54
2018-10-11T06:11:59.258Z,10.71
2018-10-11T06:12:59.182Z,10.64
2018-10-11T06:13:59.357Z,10.69
2018-10-11T06:14:59.190Z,10.74
2018-10-11T06:15:59.373Z,10.82
2018-10-11T06:16:59.365Z,10.89
2018-10-11T06:17:59.171Z,10.87
2018-10-11T06:18:59.352Z,10.84
2018-10-11T06:19:59.350Z,10.89
2018-10-11T06:20:59.144Z,10.94
2018-10-11T06:21:59.142Z,10.97
2018-10-11T06:22:59.143Z,10.96
2018-10-11T06:23:59.156Z,10.92
2018-10-11T06:24:59.150Z,10.93
2018-10-11T06:25:59.140Z,10.97
2018-10-11T06:26:59.138Z,11.07
2018-10-11T06:27:59.137Z,11.05
2018-10-11T06:28:59.135Z,11.08
2018-10-11T06:29:59.143Z,11.11
2018-10-11T06:30:59.346Z,11.15
2018-10-11T06:31:59.131Z,11.25
2018-10-11T06:32:59.339Z,11.36
2018-10-11T06:33:59.131Z,11.33
2018-10-11T06:34:59.142Z,11.30
2018-10-11T06:35:59.156Z,11.36
2018-10-11T06:36:59.125Z,11.37
2018-10-11T06:37:59.122Z,11.36
2018-10-11T06:38:59.142Z,11.45
2018-10-11T06:39:59.124Z,11.43
2018-10-11T06:40:59.126Z,11.41
2018-10-11T06:41:59.236Z,11.50
2018-10-11T06:42:59.128Z,11.44
2018-10-11T06:43:59.134Z,11.52
2018-10-11T06:44:59.157Z,11.50
2018-10-11T06:45:59.149Z,11.57
2018-10-11T06:46:59.122Z,11.63
2018-10-11T06:47:59.127Z,11.62
2018-10-11T06:48:59.324Z,11.73
2018-10-11T06:49:59.274Z,11.90
2018-10-11T06:50:59.119Z,11.86
2018-10-11T06:51:59.111Z,11.97
2018-10-11T06:52:59.109Z,12.06
2018-10-11T06:53:59.106Z,12.00
2018-10-11T06:54:59.102Z,12.10
2018-10-11T06:55:59.185Z,12.12
2018-10-11T06:56:59.102Z,12.28
2018-10-11T06:57:59.100Z,12.25
2018-10-11T06:58:59.303Z,12.31
2018-10-11T06:59:59.115Z,12.45
2018-10-11T07:00:59.103Z,12.49
2018-10-11T07:01:59.305Z,12.60
2018-10-11T07:02:59.111Z,12.65
2018-10-11T07:03:59.117Z,12.75
2018-10-11T07:04:59.113Z,12.85
2018-10-11T07:05:59.117Z,12.97
2018-10-11T07:06:59.125Z,12.82
2018-10-11T07:07:59.115Z,12.94
2018-10-11T07:08:59.296Z,12.94
2018-10-11T07:09:59.305Z,13.01
2018-10-11T07:10:59.122Z,13.12
2018-10-11T07:11:59.292Z,13.08
2018-10-11T07:12:59.088Z,13.12
2018-10-11T07:13:59.138Z,13.11
2018-10-11T07:14:59.089Z,13.22
2018-10-11T07:15:59.086Z,13.16
2018-10-11T07:16:59.097Z,13.23
2018-10-11T07:17:59.110Z,13.28
2018-10-11T07:18:59.090Z,13.23
2018-10-11T07:19:59.095Z,13.35
2018-10-11T07:20:59.314Z,13.31
2018-10-11T07:21:59.097Z,13.33
2018-10-11T07:22:59.088Z,13.37
2018-10-11T07:23:59.100Z,13.35
2018-10-11T07:24:59.081Z,13.50
2018-10-11T07:25:59.134Z,13.49
2018-10-11T07:26:59.081Z,13.57
2018-10-11T07:27:59.097Z,13.52
2018-10-11T07:28:59.090Z,13.65
2018-10-11T07:29:59.092Z,13.63
2018-10-11T07:30:59.079Z,13.81
2018-10-11T07:31:59.084Z,13.86
2018-10-11T07:32:59.080Z,13.99
2018-10-11T07:33:59.088Z,14.11
2018-10-11T07:34:59.165Z,14.14
2018-10-11T07:35:59.093Z,14.35
2018-10-11T07:36:59.099Z,14.41
2018-10-11T07:37:59.276Z,14.53
2018-10-11T07:38:59.100Z,14.70
2018-10-11T07:39:59.107Z,14.70
2018-10-11T07:40:59.201Z,14.89
2018-10-11T07:41:59.280Z,14.89
2018-10-11T07:42:59.088Z,15.00
2018-10-11T07:43:59.090Z,15.17
2018-10-11T07:44:59.076Z,15.19
2018-10-11T07:45:59.296Z,15.36
2018-10-11T07:46:59.144Z,15.36
2018-10-11T07:47:59.076Z,15.44
2018-10-11T07:48:59.078Z,15.57
2018-10-11T07:49:59.073Z,15.55
2018-10-11T07:50:59.084Z,15.58
2018-10-11T07:51:59.280Z,15.79
2018-10-11T07:52:59.102Z,15.79
2018-10-11T07:53:59.091Z,15.90
2018-10-11T07:54:59.281Z,15.97
2018-10-11T07:55:59.075Z,16.16
2018-10-11T07:56:59.077Z,16.31
2018-10-11T07:57:59.292Z,16.31
2018-10-11T07:58:59.075Z,16.29
2018-10-11T07:59:59.083Z,16.42
2018-10-11T08:00:59.084Z,16.38
2018-10-11T08:01:59.292Z,16.39
2018-10-11T08:02:59.075Z,16.51
2018-10-11T08:03:59.095Z,16.54
2018-10-11T08:04:59.109Z,16.65
2018-10-11T08:05:59.288Z,16.74
2018-10-11T08:06:59.141Z,16.84
2018-10-11T08:07:59.077Z,16.89
2018-10-11T08:08:59.149Z,17.06
2018-10-11T08:09:59.079Z,17.01
2018-10-11T08:10:59.177Z,17.04
2018-10-11T08:11:59.333Z,17.01
2018-10-11T08:12:59.079Z,17.04
2018-10-11T08:13:59.078Z,16.94
2018-10-11T08:14:59.089Z,17.02
2018-10-11T08:15:59.164Z,17.01
2018-10-11T08:16:59.337Z,17.06
2018-10-11T08:17:59.437Z,17.19
2018-10-11T08:18:59.469Z,17.27
2018-10-11T08:19:59.196Z,17.39
2018-10-11T08:20:59.287Z,17.39
2018-10-11T08:21:59.083Z,17.41
2018-10-11T08:22:59.095Z,17.44
2018-10-11T08:23:59.082Z,17.56
2018-10-11T08:24:59.243Z,17.51
2018-10-11T08:25:59.568Z,17.52
2018-10-11T08:26:59.411Z,17.59
2018-10-11T08:27:59.089Z,17.65
2018-10-11T08:28:59.105Z,17.78
2018-10-11T08:29:59.105Z,17.89
2018-10-11T08:30:59.301Z,17.92
2018-10-11T08:31:59.289Z,17.86
2018-10-11T08:32:59.106Z,17.92
2018-10-11T08:33:59.111Z,17.86
2018-10-11T08:34:59.092Z,17.80
2018-10-11T08:35:59.116Z,17.78
2018-10-11T08:36:59.100Z,17.64
2018-10-11T08:37:59.365Z,17.59
2018-10-11T08:38:59.130Z,17.74
2018-10-11T08:39:59.110Z,17.72
2018-10-11T08:40:59.124Z,17.85
2018-10-11T08:41:59.108Z,17.80
2018-10-11T08:42:59.094Z,17.83
2018-10-11T08:43:59.197Z,17.85
2018-10-11T08:44:59.122Z,17.83
2018-10-11T08:45:59.097Z,17.72
2018-10-11T08:46:59.112Z,17.82
2018-10-11T08:47:59.100Z,17.80
2018-10-11T08:48:59.344Z,17.85
2018-10-11T08:49:59.114Z,18.01
2018-10-11T08:50:59.197Z,17.97
2018-10-11T08:51:59.103Z,18.08
2018-10-11T08:52:59.116Z,18.13
2018-10-11T08:53:59.102Z,18.18
2018-10-11T08:54:59.117Z,18.05
2018-10-11T08:55:59.201Z,18.08
2018-10-11T08:56:59.106Z,18.18
2018-10-11T08:57:59.120Z,18.15
2018-10-11T08:58:59.380Z,18.15
2018-10-11T08:59:59.108Z,18.13
2018-10-11T09:00:59.110Z,18.19
2018-10-11T09:01:59.110Z,18.33
2018-10-11T09:02:59.111Z,18.26
2018-10-11T09:03:59.311Z,18.31
2018-10-11T09:04:59.166Z,18.37
2018-10-11T09:05:59.139Z,18.25
2018-10-11T09:06:59.116Z,18.18
2018-10-11T09:07:59.115Z,18.18
2018-10-11T09:08:59.126Z,18.15
2018-10-11T09:09:59.121Z,18.11
2018-10-11T09:10:59.178Z,18.04
2018-10-11T09:11:59.125Z,18.00
2018-10-11T09:12:59.145Z,18.00
2018-10-11T09:13:59.164Z,17.95
2018-10-11T09:14:59.165Z,18.18
2018-10-11T09:15:59.130Z,18.11
2018-10-11T09:16:59.158Z,18.19
2018-10-11T09:17:59.156Z,18.26
2018-10-11T09:18:59.140Z,18.22
2018-10-11T09:19:59.132Z,18.22
2018-10-11T09:20:59.334Z,18.26
2018-10-11T09:21:59.134Z,18.34
2018-10-11T09:22:59.139Z,18.34
2018-10-11T09:23:59.134Z,18.37
2018-10-11T09:24:59.147Z,18.41
2018-10-11T09:25:59.138Z,18.43
2018-10-11T09:26:59.139Z,18.63
2018-10-11T09:27:59.140Z,18.62
2018-10-11T09:28:59.141Z,18.75
2018-10-11T09:29:59.145Z,18.75
2018-10-11T09:30:59.173Z,18.90
2018-10-11T09:31:59.147Z,18.84
2018-10-11T09:32:59.147Z,18.93
2018-10-11T09:33:59.160Z,19.04
2018-10-11T09:34:59.160Z,19.09
2018-10-11T09:35:59.153Z,19.09
2018-10-11T09:36:59.207Z,19.15
2018-10-11T09:37:59.208Z,19.15
2018-10-11T09:38:59.216Z,19.22
2018-10-11T09:39:59.166Z,19.27
2018-10-11T09:40:59.372Z,19.37
2018-10-11T09:41:59.363Z,19.49
2018-10-11T09:42:59.207Z,19.37
2018-10-11T09:43:59.377Z,19.45
2018-10-11T09:44:59.382Z,19.56
2018-10-11T09:45:59.180Z,19.66
2018-10-11T09:46:59.380Z,19.67
2018-10-11T09:47:59.184Z,19.76
2018-10-11T09:48:59.195Z,19.73
2018-10-11T09:49:59.181Z,19.59
2018-10-11T09:50:59.170Z,19.71
2018-10-11T09:51:59.175Z,19.67
2018-10-11T09:52:59.176Z,19.69
2018-10-11T09:53:59.382Z,19.66
2018-10-11T09:54:59.295Z,19.66
2018-10-11T09:55:59.383Z,19.59
2018-10-11T09:56:59.207Z,19.51
2018-10-11T09:57:59.197Z,19.51
2018-10-11T09:58:59.400Z,19.51
2018-10-11T09:59:59.410Z,19.48
2018-10-11T10:00:59.196Z,19.56
2018-10-11T10:01:59.202Z,19.59
2018-10-11T10:02:59.191Z,19.58
2018-10-11T10:03:59.198Z,19.59
2018-10-11T10:04:59.224Z,19.69
2018-10-11T10:05:59.195Z,19.69
2018-10-11T10:06:59.223Z,19.73
2018-10-11T10:07:59.205Z,19.66
2018-10-11T10:08:59.209Z,19.67
2018-10-11T10:09:59.293Z,19.69
2018-10-11T10:10:59.237Z,19.77
2018-10-11T10:11:59.217Z,19.79
2018-10-11T10:12:59.218Z,19.73
2018-10-11T10:13:59.232Z,19.85
2018-10-11T10:14:59.236Z,19.92
2018-10-11T10:15:59.239Z,19.89
2018-10-11T10:16:59.253Z,19.82
2018-10-11T10:17:59.234Z,19.95
2018-10-11T10:18:59.421Z,19.95
2018-10-11T10:19:59.251Z,19.85
2018-10-11T10:20:59.511Z,19.84
2018-10-11T10:21:59.245Z,19.89
2018-10-11T10:22:59.435Z,20.02
2018-10-11T10:23:59.230Z,20.06
2018-10-11T10:24:59.432Z,20.00
2018-10-11T10:25:59.246Z,20.09
2018-10-11T10:26:59.310Z,20.11
2018-10-11T10:27:59.450Z,20.07
2018-10-11T10:28:59.236Z,20.02
2018-10-11T10:29:59.241Z,20.03
2018-10-11T10:30:59.445Z,20.06
2018-10-11T10:31:59.260Z,20.10
2018-10-11T10:32:59.260Z,20.06
2018-10-11T10:33:59.251Z,20.09
2018-10-11T10:34:59.250Z,20.07
2018-10-11T10:35:59.262Z,20.22
2018-10-11T10:36:59.272Z,20.31
2018-10-11T10:37:59.271Z,20.29
2018-10-11T10:38:59.256Z,20.36
2018-10-11T10:39:59.411Z,20.41
2018-10-11T10:40:59.274Z,20.40
2018-10-11T10:41:59.265Z,20.43
2018-10-11T10:42:59.277Z,20.44
2018-10-11T10:43:59.267Z,20.43
2018-10-11T10:44:59.279Z,20.18
2018-10-11T10:45:59.271Z,20.26
2018-10-11T10:46:59.280Z,20.31
2018-10-11T10:47:59.289Z,20.26
2018-10-11T10:48:59.401Z,20.26
2018-10-11T10:49:59.482Z,20.19
2018-10-11T10:50:59.282Z,20.11
2018-10-11T10:51:59.285Z,20.16
2018-10-11T10:52:59.296Z,20.32
2018-10-11T10:53:59.289Z,20.37
2018-10-11T10:54:59.290Z,20.39
2018-10-11T10:55:59.294Z,20.32
2018-10-11T10:56:59.297Z,20.37
2018-10-11T10:57:59.299Z,20.31
2018-10-11T10:58:59.305Z,20.43
2018-10-11T10:59:59.302Z,20.47
2018-10-11T11:00:59.307Z,20.37
2018-10-11T11:01:59.306Z,20.39
2018-10-11T11:02:59.526Z,20.60
2018-10-11T11:03:59.320Z,20.72
2018-10-11T11:04:59.312Z,20.82
2018-10-11T11:05:59.343Z,20.84
2018-10-11T11:06:59.321Z,20.93
2018-10-11T11:07:59.334Z,20.92
2018-10-11T11:08:59.333Z,20.92
2018-10-11T11:09:59.340Z,20.97
2018-10-11T11:10:59.326Z,20.88
2018-10-11T11:11:59.329Z,21.00
2018-10-11T11:12:59.336Z,20.84
2018-10-11T11:13:59.344Z,20.99
2018-10-11T11:14:59.370Z,20.97
2018-10-11T11:15:59.389Z,20.92
2018-10-11T11:16:59.339Z,20.82
2018-10-11T11:17:59.365Z,20.84
2018-10-11T11:18:59.519Z,20.88
2018-10-11T11:19:59.348Z,20.72
2018-10-11T11:20:59.362Z,20.75
2018-10-11T11:21:59.572Z,20.66
2018-10-11T11:22:59.392Z,20.58
2018-10-11T11:23:59.561Z,20.55
2018-10-11T11:24:59.361Z,20.41
2018-10-11T11:25:59.365Z,20.41
2018-10-11T11:26:59.386Z,20.43
2018-10-11T11:27:59.368Z,20.48
2018-10-11T11:28:59.369Z,20.65
2018-10-11T11:29:59.373Z,20.87
2018-10-11T11:30:59.643Z,20.92
2018-10-11T11:31:59.380Z,21.02
2018-10-11T11:32:59.379Z,21.03
2018-10-11T11:33:59.383Z,21.02
2018-10-11T11:34:59.399Z,20.96
2018-10-11T11:35:59.612Z,21.05
2018-10-11T11:36:59.391Z,21.02
2018-10-11T11:37:59.404Z,21.00
2018-10-11T11:38:59.398Z,21.06
2018-10-11T11:39:59.457Z,21.24
2018-10-11T11:40:59.411Z,21.21
2018-10-11T11:41:59.406Z,21.27
2018-10-11T11:42:59.434Z,21.21
2018-10-11T11:43:59.422Z,21.14
2018-10-11T11:44:59.408Z,21.14
2018-10-11T11:45:59.508Z,21.27
2018-10-11T11:46:59.429Z,21.25
2018-10-11T11:47:59.418Z,21.20
2018-10-11T11:48:59.430Z,21.37
2018-10-11T11:49:59.440Z,21.36
2018-10-11T11:50:59.438Z,21.39
2018-10-11T11:51:59.445Z,21.32
2018-10-11T11:52:59.637Z,21.29
2018-10-11T11:53:59.435Z,21.32
2018-10-11T11:54:59.437Z,21.25
2018-10-11T11:55:59.653Z,21.29
2018-10-11T11:56:59.454Z,21.30
2018-10-11T11:57:59.537Z,21.30
2018-10-11T11:58:59.649Z,21.35
2018-10-11T11:59:59.665Z,21.45
2018-10-11T12:00:59.457Z,21.40
2018-10-11T12:01:59.489Z,21.33
2018-10-11T12:02:59.469Z,21.39
2018-10-11T12:03:59.458Z,21.37
2018-10-11T12:04:59.469Z,21.40
2018-10-11T12:05:59.666Z,21.45
2018-10-11T12:06:59.682Z,21.46
2018-10-11T12:07:59.485Z,21.61
2018-10-11T12:08:59.471Z,21.57
2018-10-11T12:09:59.474Z,21.48
2018-10-11T12:10:59.537Z,21.50
2018-10-11T12:11:59.480Z,21.60
2018-10-11T12:12:59.485Z,21.64
2018-10-11T12:13:59.485Z,21.62
2018-10-11T12:14:59.499Z,21.54
2018-10-11T12:15:59.493Z,21.58
2018-10-11T12:16:59.495Z,21.64
2018-10-11T12:17:59.498Z,21.66
2018-10-11T12:18:59.499Z,21.54
2018-10-11T12:19:59.517Z,21.61
2018-10-11T12:20:59.525Z,21.48
2018-10-11T12:21:59.557Z,21.51
2018-10-11T12:22:59.723Z,21.42
2018-10-11T12:23:59.513Z,21.43
2018-10-11T12:24:59.881Z,21.66
2018-10-11T12:25:59.536Z,21.64
2018-10-11T12:26:59.543Z,21.75
2018-10-11T12:27:59.525Z,21.91
2018-10-11T12:28:59.593Z,21.92
2018-10-11T12:29:59.532Z,21.89
2018-10-11T12:30:59.536Z,21.88
2018-10-11T12:31:59.537Z,21.92
2018-10-11T12:32:59.549Z,21.91
2018-10-11T12:33:59.543Z,21.93
2018-10-11T12:34:59.547Z,22.06
2018-10-11T12:35:59.549Z,21.85
2018-10-11T12:36:59.553Z,21.93
2018-10-11T12:37:59.555Z,21.89
2018-10-11T12:38:59.559Z,21.82
2018-10-11T12:39:59.571Z,21.80
2018-10-11T12:41:00.047Z,21.82
2018-10-11T12:41:59.568Z,21.75
2018-10-11T12:42:59.613Z,21.66
2018-10-11T12:43:59.773Z,21.62
2018-10-11T12:44:59.781Z,21.58
2018-10-11T12:45:59.579Z,21.45
2018-10-11T12:46:59.610Z,21.52
2018-10-11T12:47:59.584Z,21.57
2018-10-11T12:48:59.597Z,21.61
2018-10-11T12:49:59.898Z,21.57
2018-10-11T12:50:59.593Z,21.61
2018-10-11T12:51:59.608Z,21.51
2018-10-11T12:52:59.612Z,21.60